Terminal Aerodrome Forecast
Issued by NWS Upton, NY

Home | Current Version | Previous Version | Text Only | Print | Product List | Glossary On
Versions: 1 2 3 4 5 6 7 8 9 10 11 12 13 14 15 16 17 18 19 20 21 22 23 24 25 26 27 28 29 30
000
FTUS41 KOKX 281128
TAFISP
TAF
KISP 281128Z 2812/2912 22007KT 5SM BR SCT008 BKN012
      TEMPO 2812/2814 BKN008
     FM281400 19012KT P6SM SCT025 BKN050
      TEMPO 2814/2815 BKN020
     FM281800 19014G24KT P6SM SCT050 BKN250
     FM290500 29008KT P6SM FEW100
     FM290700 VRB05KT P6SM BKN250=

USA.gov is the U.S. government's official web portal to all federal, state and local government web resources and services.